Latest Weather Observations for Warburton

IDW60801

Issued at 8:43 pm WST Friday 15 November 2019 (issued every 10 minutes, with the page automatically refreshed every 10 minutes)

About weather observations | Map of weather stations | Latest weather observations for WA | Other Formats
Station Details ID: 013011 Name: WARBURTON AIRFIELD Lat: -26.13 Lon: 126.58 Height: 459.0 m
Data from the previous 72 hours. | See also: Recent months at Warburton
Date/Time
WST
Temp
°C
App
Temp
°C
Dew
Point
°C
Rel
Hum
%
Delta-T
°C
Wind Press
QNH
hPa
Press
MSL
hPa
Rain since
9am
mm
Dir  Spd
km/h
Gust
km/h
Spd
kts
Gust
kts
15/08:30pm 27.5 22.0 -15.4 5 15.6 SE 11 13 6 7 1017.6 1014.7 0.0
15/08:00pm 28.2 23.1 -15.0 5 16.0 SE 9 13 5 7 1017.3 1014.4 0.0
15/07:30pm 29.1 23.9 -17.0 4 16.6 SE 9 11 5 6 1017.0 1014.1 0.0
15/07:00pm 31.2 25.7 -15.6 4 17.7 SSE 11 13 6 7 1016.5 1013.7 0.0
15/06:30pm 33.2 27.2 -17.6 3 19.0 SE 13 19 7 10 1016.2 1013.3 0.0
15/06:00pm 34.6 28.3 -16.7 3 19.7 SE 15 20 8 11 1015.8 1012.9 0.0
15/05:30pm 35.7 28.7 -16.0 3 20.3 SSE 19 28 10 15 1015.3 1012.4 0.0
15/05:00pm 36.5 28.9 -15.5 3 20.7 ESE 22 32 12 17 1015.0 1012.1 0.0
15/04:30pm 36.9 31.4 -15.2 3 20.9 SE 11 22 6 12 1014.8 1011.9 0.0
15/04:00pm 36.4 30.0 -12.0 4 20.4 S 17 28 9 15 1014.7 1011.8 0.0
15/03:30pm 37.2 31.6 -11.5 4 20.8 SE 13 30 7 16 1014.6 1011.7 0.0
15/03:00pm 36.7 30.7 -11.8 4 20.5 SSE 15 28 8 15 1014.7 1011.8 0.0
15/02:30pm 37.8 30.5 -11.1 4 21.1 ESE 22 44 12 24 1014.7 1011.8 0.0
15/02:29pm 37.4 30.1 -11.4 4 20.9 ESE 22 44 12 24 1014.5 1011.5 0.0
15/02:00pm 37.2 31.8 -8.7 5 20.5 ESE 13 24 7 13 1015.0 1012.1 0.0
15/01:30pm 36.5 31.0 -9.2 5 20.1 SW 13 32 7 17 1015.2 1012.3 0.0
15/01:00pm 37.7 33.1 -8.3 5 20.7 ESE 9 22 5 12 1015.3 1012.4 0.0
15/12:30pm 37.2 31.4 -8.7 5 20.5 SSE 15 28 8 15 1015.8 1012.9 0.0
15/12:00pm 36.8 31.0 -9.0 5 20.2 SE 15 26 8 14 1016.0 1013.1 0.0
15/11:30am 36.1 30.2 -9.4 5 19.9 S 15 32 8 17 1016.3 1013.4 0.0
15/11:00am 36.2 31.3 -7.0 6 19.6 ESE 11 32 6 17 1016.8 1013.9 0.0
15/10:30am 35.5 29.4 -7.5 6 19.3 SE 17 26 9 14 1017.1 1014.2 0.0
15/10:00am 34.8 29.4 -8.0 6 18.9 E 13 20 7 11 1017.2 1014.3 0.0
15/09:30am 35.4 29.7 -7.6 6 19.2 E 15 30 8 16 1017.5 1014.6 0.0
15/09:00am 34.1 28.3 -8.5 6 18.6 ENE 15 30 8 16 1017.6 1014.7 0.0
15/08:30am 33.0 27.7 -7.3 7 17.8 E 13 19 7 10 1017.6 1014.7 0.0
15/08:00am 31.7 26.7 -8.3 7 17.1 ESE 11 19 6 10 1017.6 1014.7 0.0
15/07:30am 29.5 24.0 -9.9 7 16.1 SE 13 19 7 10 1017.9 1015.0 0.0
15/07:00am 27.9 22.4 -9.4 8 15.2 ESE 13 17 7 9 1017.8 1014.9 0.0
15/06:30am 26.1 20.3 -9.2 9 14.2 ESE 15 20 8 11 1017.7 1014.8 0.0
15/06:00am 23.2 18.4 -10.1 10 12.7 SE 9 13 5 7 1017.5 1014.6 0.0
15/05:30am 20.6 16.4 -9.8 12 11.4 SSE 6 9 3 5 1017.3 1014.4 0.0
15/05:00am 17.3 13.2 -8.7 16 9.6 S 6 9 3 5 1017.1 1014.2 0.0
15/04:30am 16.3 12.0 -9.5 16 9.3 SSE 7 9 4 5 1016.5 1013.7 0.0
15/04:00am 16.4 13.4 -9.4 16 9.3 CALM 0 0 0 0 1016.1 1013.2 0.0
15/03:30am 17.8 14.1 -9.1 15 9.9 SSW 4 7 2 4 1016.0 1013.1 0.0
15/03:00am 18.4 13.7 -8.7 15 10.1 S 9 11 5 6 1015.9 1013.0 0.0
15/02:30am 19.4 15.7 -8.7 14 10.6 S 4 7 2 4 1015.9 1013.0 0.0
15/02:00am 20.8 15.8 -8.6 13 11.3 SSW 11 13 6 7 1015.6 1012.7 0.0
15/01:30am 21.2 16.6 -8.3 13 11.5 S 9 11 5 6 1015.7 1012.8 0.0
15/01:00am 21.6 17.4 -8.0 13 11.6 S 7 9 4 5 1015.7 1012.8 0.0
15/12:30am 22.7 18.5 -8.1 12 12.2 S 7 9 4 5 1015.7 1012.8 0.0
15/12:00am 22.3 18.3 -7.4 13 11.9 SE 6 9 3 5 1016.0 1013.1 0.0
 
Date/Time
WST
Temp
°C
App
Temp
°C
Dew
Point
°C
Rel
Hum
%
Delta-T
°C
Wind Press
QNH
hPa
Press
MSL
hPa
Rain since
9am
mm
Dir  Spd
km/h
Gust
km/h
Spd
kts
Gust
kts
14/11:30pm 23.6 19.4 -7.4 12 12.6 SSE 7 9 4 5 1016.1 1013.2 0.0
14/11:00pm 25.6 19.8 -8.2 10 13.7 S 15 28 8 15 1016.1 1013.2 0.0
14/10:30pm 24.4 19.8 -7.9 11 13.1 SE 9 11 5 6 1016.0 1013.1 0.0
14/10:00pm 25.3 20.8 -7.2 11 13.4 SE 9 11 5 6 1016.1 1013.2 0.0
14/09:30pm 26.7 22.1 -7.4 10 14.2 SE 9 13 5 7 1016.1 1013.2 0.0
14/09:00pm 27.5 22.6 -6.8 10 14.6 SE 11 13 6 7 1016.1 1013.2 0.0
14/08:30pm 28.1 23.1 -7.7 9 15.0 SE 11 13 6 7 1016.1 1013.2 0.0
14/08:00pm 29.1 24.2 -7.0 9 15.5 ESE 11 13 6 7 1015.9 1013.0 0.0
14/07:30pm 30.6 26.2 -5.8 9 16.1 SE 9 13 5 7 1015.8 1012.9 0.0
14/07:00pm 31.4 26.5 -6.8 8 16.8 SSE 11 15 6 8 1015.4 1012.5 0.0
14/06:30pm 32.7 27.9 -5.8 8 17.4 S 11 17 6 9 1015.1 1012.2 0.0
14/06:00pm 34.0 28.4 -6.6 7 18.3 SSW 15 20 8 11 1014.8 1011.9 0.0
14/05:30pm 35.2 30.4 -5.7 7 18.8 S 11 19 6 10 1014.6 1011.7 0.0
14/05:00pm 35.9 30.8 -5.2 7 19.2 SW 13 20 7 11 1014.2 1011.3 0.0
14/04:30pm 35.6 32.0 -3.7 8 18.7 SE 6 13 3 7 1014.1 1011.2 0.0
14/04:00pm 35.8 30.1 -3.5 8 18.8 SSW 17 24 9 13 1014.3 1011.4 0.0
14/03:30pm 35.8 31.6 -3.5 8 18.8 SW 9 22 5 12 1014.5 1011.5 0.0
14/03:00pm 36.7 31.3 -4.7 7 19.6 SW 15 22 8 12 1014.8 1011.9 0.0
14/02:30pm 35.7 30.8 -3.6 8 18.8 SSE 13 20 7 11 1015.1 1012.2 0.0
14/02:00pm 35.4 30.5 -3.8 8 18.6 SSE 13 20 7 11 1015.5 1012.6 0.0
14/01:30pm 36.2 32.5 -3.3 8 19.0 NNW 7 15 4 8 1015.9 1013.0 0.0
14/01:00pm 34.8 30.6 -4.3 8 18.3 NNW 9 20 5 11 1016.5 1013.7 0.0
14/12:30pm 34.9 31.0 -4.2 8 18.4 NNE 7 13 4 7 1017.1 1014.2 0.0
14/12:00pm 34.2 30.1 -3.2 9 17.8 ESE 9 19 5 10 1017.6 1014.7 0.0
14/11:30am 33.9 29.8 -3.4 9 17.7 SSW 9 15 5 8 1018.1 1015.2 0.0
14/11:00am 32.3 28.2 -3.2 10 16.6 SE 9 17 5 9 1018.6 1015.8 0.0
14/10:30am 31.7 27.5 -3.6 10 16.4 ESE 9 17 5 9 1019.2 1016.3 0.0
14/10:00am 31.5 27.9 -3.8 10 16.3 ENE 6 13 3 7 1019.6 1016.7 0.0
14/09:30am 30.5 25.2 -3.3 11 15.6 NE 15 24 8 13 1020.0 1017.1 0.0
14/09:00am 29.8 25.2 -3.8 11 15.3 NE 11 20 6 11 1020.4 1017.6 0.0
14/08:30am 29.3 24.3 -4.2 11 15.1 ENE 13 20 7 11 1020.5 1017.7 0.0
14/08:00am 28.0 22.3 -4.0 12 14.3 ENE 17 24 9 13 1020.7 1017.9 0.0
14/07:30am 26.4 20.1 -4.2 13 13.5 ENE 20 30 11 16 1020.6 1017.8 0.0
14/07:00am 25.7 19.4 -3.8 14 13.0 E 20 30 11 16 1020.0 1017.1 0.0
14/06:30am 24.4 18.1 -3.9 15 12.3 E 20 28 11 15 1019.7 1016.8 0.0
14/06:00am 22.7 16.4 -4.4 16 11.5 ESE 20 28 11 15 1019.4 1016.5 0.0
14/05:30am 21.1 14.8 -4.1 18 10.6 ESE 20 30 11 16 1019.1 1016.2 0.0
14/05:00am 20.5 14.2 -3.9 19 10.2 ESE 20 32 11 17 1018.6 1015.8 0.0
14/04:30am 20.7 14.1 -3.7 19 10.3 ESE 22 32 12 17 1018.1 1015.2 0.0
14/04:00am 21.1 14.1 -3.4 19 10.5 ESE 24 32 13 17 1017.9 1015.0 0.0
14/03:30am 21.3 15.1 -3.2 19 10.5 ESE 20 26 11 14 1018.0 1015.1 0.0
14/03:00am 21.7 15.1 -3.6 18 10.8 ESE 22 30 12 16 1017.5 1014.6 0.0
14/02:30am 21.9 15.8 -3.5 18 10.9 ESE 19 24 10 13 1017.6 1014.7 0.0
14/02:00am 22.1 16.1 -3.3 18 11.0 ESE 19 26 10 14 1017.7 1014.8 0.0
14/01:30am 22.2 17.2 -4.0 17 11.2 SE 13 17 7 9 1018.0 1015.1 0.0
14/01:00am 22.8 17.8 -4.3 16 11.5 SE 13 20 7 11 1018.0 1015.1 0.0
14/12:30am 23.3 18.7 -3.9 16 11.7 ESE 11 17 6 9 1018.3 1015.4 0.0
14/12:00am 24.1 19.1 -4.1 15 12.2 ESE 13 19 7 10 1018.7 1015.9 0.0
 
Date/Time
WST
Temp
°C
App
Temp
°C
Dew
Point
°C
Rel
Hum
%
Delta-T
°C
Wind Press
QNH
hPa
Press
MSL
hPa
Rain since
9am
mm
Dir  Spd
km/h
Gust
km/h
Spd
kts
Gust
kts
13/11:30pm 24.8 19.0 -4.5 14 12.7 SE 17 20 9 11 1018.9 1016.1 0.0
13/11:00pm 25.4 19.7 -4.0 14 12.9 ESE 17 20 9 11 1019.1 1016.2 0.0
13/10:30pm 26.0 19.8 -4.5 13 13.3 SE 19 26 10 14 1019.5 1016.6 0.0
13/10:00pm 26.4 20.6 -4.2 13 13.5 ESE 17 20 9 11 1019.6 1016.7 0.0
13/09:30pm 26.8 21.4 -4.9 12 13.8 SE 15 19 8 10 1020.0 1017.1 0.0
13/09:00pm 27.0 21.9 -4.8 12 13.9 SE 13 17 7 9 1020.2 1017.3 0.0
13/08:30pm 26.9 22.6 -4.9 12 13.9 S 9 11 5 6 1020.4 1017.6 0.0
13/08:00pm 27.4 23.1 -4.5 12 14.1 SE 9 13 5 7 1020.0 1017.1 0.0
13/07:30pm 28.2 23.2 -3.9 12 14.4 SE 13 17 7 9 1019.7 1016.8 0.0
13/07:00pm 28.8 23.9 -3.4 12 14.6 SSE 13 17 7 9 1019.6 1016.7 0.0
13/06:30pm 29.6 24.6 -3.9 11 15.2 SSE 13 20 7 11 1019.3 1016.4 0.0
13/06:00pm 30.1 24.0 -3.6 11 15.4 SE 19 28 10 15 1018.8 1016.0 0.0
13/05:30pm 30.6 24.4 -4.4 10 15.9 SSE 19 26 10 14 1018.6 1015.8 0.0
13/05:00pm 31.4 25.1 -3.8 10 16.2 SSE 20 30 11 16 1018.5 1015.7 0.0
13/04:30pm 31.6 25.0 -3.7 10 16.4 SSE 22 32 12 17 1018.2 1015.3 0.0
13/04:00pm 31.9 25.8 -3.5 10 16.5 SSE 19 28 10 15 1018.0 1015.1 0.0
13/03:30pm 32.2 26.0 -3.2 10 16.6 SSE 20 28 11 15 1018.2 1015.3 0.0
13/03:00pm 33.6 27.5 -3.6 9 17.5 ESE 19 28 10 15 1018.3 1015.4 0.0
13/02:30pm 33.0 26.9 -2.6 10 17.0 SE 20 30 11 16 1018.5 1015.7 0.0
13/02:00pm 31.4 25.3 -3.8 10 16.2 SE 19 24 10 13 1018.8 1016.0 0.0
13/01:30pm 31.3 25.7 -2.6 11 16.0 ESE 17 28 9 15 1019.3 1016.4 0.0
13/01:00pm 31.7 25.2 -2.3 11 16.1 SE 22 33 12 18 1019.7 1016.8 0.0
13/12:30pm 31.0 24.6 -1.7 12 15.6 SE 22 33 12 18 1020.1 1017.2 0.0
13/12:00pm 30.4 23.8 -0.1 14 14.9 SE 24 33 13 18 1020.4 1017.6 0.0
13/11:30am 30.5 24.5 1.0 15 14.7 ESE 22 35 12 19 1020.9 1018.1 0.0
13/11:00am 28.8 22.3 0.5 16 13.8 ESE 24 39 13 21 1021.4 1018.5 0.0
13/10:30am 27.8 21.6 2.1 19 12.8 ESE 24 37 13 20 1021.8 1018.9 0.0
13/10:00am 27.3 21.9 2.4 20 12.4 ESE 20 32 11 17 1022.0 1019.1 0.0
13/09:30am 26.2 19.6 2.2 21 11.9 ESE 26 41 14 22 1022.2 1019.3 0.0
13/09:00am 25.2 19.2 3.2 24 11.0 ESE 24 39 13 21 1022.3 1019.4 0.0
13/08:30am 24.3 18.2 3.0 25 10.5 ESE 24 39 13 21 1022.4 1019.6 0.0
13/08:00am 23.1 16.7 3.1 27 9.8 ESE 26 39 14 21 1022.4 1019.6 0.0
13/07:30am 22.6 16.2 3.2 28 9.5 ESE 26 35 14 19 1022.5 1019.7 0.0
13/07:00am 21.8 14.6 3.0 29 9.1 ESE 30 39 16 21 1022.4 1019.6 0.0
13/06:30am 20.9 14.1 3.2 31 8.6 ESE 28 39 15 21 1021.9 1019.0 0.0
13/06:00am 20.0 13.1 2.8 32 8.2 ESE 28 43 15 23 1021.6 1018.7 0.0
13/05:30am 19.6 13.6 3.3 34 7.9 ESE 24 41 13 22 1021.2 1018.4 0.0
13/05:00am 19.2 13.2 3.4 35 7.6 SE 24 39 13 21 1020.5 1017.7 0.0
13/04:30am 19.5 12.8 3.6 35 7.7 SE 28 39 15 21 1020.1 1017.2 0.0
13/04:00am 19.7 13.0 3.8 35 7.7 ESE 28 41 15 22 1019.7 1016.8 0.0
13/03:30am 19.9 13.2 3.6 34 7.9 SE 28 41 15 22 1019.9 1017.0 0.0
13/03:00am 20.3 13.6 3.5 33 8.1 ESE 28 43 15 23 1019.7 1016.8 0.0
13/02:30am 20.5 13.7 3.3 32 8.3 ESE 28 37 15 20 1019.3 1016.4 0.0
13/02:00am 20.7 14.6 3.0 31 8.5 SE 24 32 13 17 1019.8 1016.9 0.0
13/01:30am 21.2 15.5 3.0 30 8.8 ESE 22 32 12 17 1020.2 1017.3 0.0
13/01:00am 21.4 16.0 2.6 29 9.0 ESE 20 33 11 18 1020.2 1017.3 0.0
13/12:30am 21.8 14.9 2.5 28 9.3 SE 28 39 15 21 1020.0 1017.1 0.0
13/12:00am 22.1 16.4 2.8 28 9.4 ESE 22 35 12 19 1020.4 1017.6 0.0
 
Date/Time
WST
Temp
°C
App
Temp
°C
Dew
Point
°C
Rel
Hum
%
Delta-T
°C
Wind Press
QNH
hPa
Press
MSL
hPa
Rain since
9am
mm
Dir  Spd
km/h
Gust
km/h
Spd
kts
Gust
kts
12/11:30pm 22.5 17.1 2.6 27 9.7 SE 20 32 11 17 1020.9 1018.1 0.0
12/11:00pm 23.1 17.0 2.6 26 10.0 ESE 24 35 13 19 1020.5 1017.7 0.0
12/10:30pm 23.4 16.5 2.8 26 10.1 SE 28 39 15 21 1021.0 1018.2 0.0
12/10:00pm 23.8 16.2 2.6 25 10.4 SE 32 54 17 29 1021.1 1018.3 0.0
12/09:30pm 24.2 16.6 2.9 25 10.5 SE 32 52 17 28 1021.4 1018.5 0.0
12/09:21pm 24.3 16.6 2.5 24 10.7 SE 32 52 17 28 1021.5 1018.6 0.0
12/09:00pm 24.6 18.1 2.7 24 10.8 SE 26 39 14 21 1021.6 1018.7 0.0

Other formats

Comma delimited format used in spreadsheet applications
http://www.bom.gov.au/fwo/IDW60801/IDW60801.94457.axf

JavaScript Object Notation format (JSON) in row-major order
http://www.bom.gov.au/fwo/IDW60801/IDW60801.94457.json

Data quality

Most of these data are generated automatically and are frequently updated. Quality checks on data are not normally performed. It is possible for incorrect values to appear. Refer to information at About Latest Weather Observations and please check the disclaimer before using these data.